sensor_id;sensor_type;location;lat;lon;timestamp;P1;durP1;ratioP1;P2;durP2;ratioP2
18720;SDS011;9489;50.948;3.114;2023-04-09T00:00:34;99.00;;;61.78;;
18720;SDS011;9489;50.948;3.114;2023-04-09T00:03:00;108.45;;;63.90;;
18720;SDS011;9489;50.948;3.114;2023-04-09T00:05:26;112.90;;;66.50;;
18720;SDS011;9489;50.948;3.114;2023-04-09T00:07:51;110.75;;;64.95;;
18720;SDS011;9489;50.948;3.114;2023-04-09T00:10:17;98.43;;;59.47;;
18720;SDS011;9489;50.948;3.114;2023-04-09T00:12:43;97.50;;;58.03;;
18720;SDS011;9489;50.948;3.114;2023-04-09T00:15:08;105.72;;;66.95;;
18720;SDS011;9489;50.948;3.114;2023-04-09T00:17:34;105.63;;;61.80;;
18720;SDS011;9489;50.948;3.114;2023-04-09T00:20:00;111.90;;;68.25;;
18720;SDS011;9489;50.948;3.114;2023-04-09T00:22:25;109.78;;;64.53;;
18720;SDS011;9489;50.948;3.114;2023-04-09T00:24:51;116.78;;;66.10;;
18720;SDS011;9489;50.948;3.114;2023-04-09T00:27:16;108.10;;;63.13;;
18720;SDS011;9489;50.948;3.114;2023-04-09T00:29:42;107.38;;;64.03;;
18720;SDS011;9489;50.948;3.114;2023-04-09T00:32:08;104.68;;;63.45;;
18720;SDS011;9489;50.948;3.114;2023-04-09T00:34:33;106.75;;;63.38;;
18720;SDS011;9489;50.948;3.114;2023-04-09T00:36:59;104.70;;;60.70;;
18720;SDS011;9489;50.948;3.114;2023-04-09T00:39:25;101.47;;;62.33;;
18720;SDS011;9489;50.948;3.114;2023-04-09T00:41:54;99.13;;;59.75;;
18720;SDS011;9489;50.948;3.114;2023-04-09T00:44:23;99.70;;;59.28;;
18720;SDS011;9489;50.948;3.114;2023-04-09T00:46:50;98.78;;;59.60;;
18720;SDS011;9489;50.948;3.114;2023-04-09T00:49:16;104.90;;;61.92;;
18720;SDS011;9489;50.948;3.114;2023-04-09T00:51:42;109.55;;;63.10;;
18720;SDS011;9489;50.948;3.114;2023-04-09T00:54:10;92.85;;;58.88;;
18720;SDS011;9489;50.948;3.114;2023-04-09T00:56:36;93.38;;;60.00;;
18720;SDS011;9489;50.948;3.114;2023-04-09T00:59:03;100.05;;;61.00;;
18720;SDS011;9489;50.948;3.114;2023-04-09T01:01:28;97.43;;;60.50;;
18720;SDS011;9489;50.948;3.114;2023-04-09T01:03:54;89.15;;;58.95;;
18720;SDS011;9489;50.948;3.114;2023-04-09T01:15:06;86.97;;;54.45;;
18720;SDS011;9489;50.948;3.114;2023-04-09T01:17:52;94.35;;;58.90;;
18720;SDS011;9489;50.948;3.114;2023-04-09T01:20:33;83.63;;;53.30;;
18720;SDS011;9489;50.948;3.114;2023-04-09T01:25:44;78.05;;;52.72;;
18720;SDS011;9489;50.948;3.114;2023-04-09T01:28:38;82.85;;;53.10;;
18720;SDS011;9489;50.948;3.114;2023-04-09T01:31:12;78.30;;;51.30;;
18720;SDS011;9489;50.948;3.114;2023-04-09T01:33:42;74.93;;;51.17;;
18720;SDS011;9489;50.948;3.114;2023-04-09T01:36:08;82.70;;;52.63;;
18720;SDS011;9489;50.948;3.114;2023-04-09T01:38:35;79.28;;;51.85;;
18720;SDS011;9489;50.948;3.114;2023-04-09T01:41:04;73.88;;;51.13;;
18720;SDS011;9489;50.948;3.114;2023-04-09T01:43:31;98.00;;;53.35;;
18720;SDS011;9489;50.948;3.114;2023-04-09T01:45:58;72.13;;;47.47;;
18720;SDS011;9489;50.948;3.114;2023-04-09T01:48:26;75.97;;;47.03;;
18720;SDS011;9489;50.948;3.114;2023-04-09T01:50:53;113.00;;;49.20;;
18720;SDS011;9489;50.948;3.114;2023-04-09T01:53:20;115.07;;;52.00;;
18720;SDS011;9489;50.948;3.114;2023-04-09T01:55:46;90.50;;;48.22;;
18720;SDS011;9489;50.948;3.114;2023-04-09T01:58:12;70.40;;;44.58;;
18720;SDS011;9489;50.948;3.114;2023-04-09T02:00:38;207.13;;;55.63;;
18720;SDS011;9489;50.948;3.114;2023-04-09T02:03:09;91.50;;;43.65;;
18720;SDS011;9489;50.948;3.114;2023-04-09T02:05:44;110.40;;;46.35;;
18720;SDS011;9489;50.948;3.114;2023-04-09T02:08:18;135.77;;;50.30;;
18720;SDS011;9489;50.948;3.114;2023-04-09T02:10:46;91.03;;;43.60;;
18720;SDS011;9489;50.948;3.114;2023-04-09T02:13:17;71.40;;;45.90;;
18720;SDS011;9489;50.948;3.114;2023-04-09T02:15:44;103.65;;;50.00;;
18720;SDS011;9489;50.948;3.114;2023-04-09T02:18:24;76.78;;;47.00;;
18720;SDS011;9489;50.948;3.114;2023-04-09T02:20:52;85.93;;;44.03;;
18720;SDS011;9489;50.948;3.114;2023-04-09T02:23:19;68.00;;;42.30;;
18720;SDS011;9489;50.948;3.114;2023-04-09T02:25:44;69.97;;;42.22;;
18720;SDS011;9489;50.948;3.114;2023-04-09T02:28:10;85.03;;;41.70;;
18720;SDS011;9489;50.948;3.114;2023-04-09T02:30:36;83.30;;;43.25;;
18720;SDS011;9489;50.948;3.114;2023-04-09T02:33:01;73.70;;;41.88;;
18720;SDS011;9489;50.948;3.114;2023-04-09T02:35:27;93.32;;;43.70;;
18720;SDS011;9489;50.948;3.114;2023-04-09T02:37:53;96.25;;;43.40;;
18720;SDS011;9489;50.948;3.114;2023-04-09T02:40:19;134.35;;;44.47;;
18720;SDS011;9489;50.948;3.114;2023-04-09T02:42:44;91.97;;;42.13;;
18720;SDS011;9489;50.948;3.114;2023-04-09T02:45:10;159.48;;;47.72;;
18720;SDS011;9489;50.948;3.114;2023-04-09T02:47:35;92.72;;;41.65;;
18720;SDS011;9489;50.948;3.114;2023-04-09T02:50:01;159.30;;;46.35;;
18720;SDS011;9489;50.948;3.114;2023-04-09T02:52:27;119.90;;;45.47;;
18720;SDS011;9489;50.948;3.114;2023-04-09T02:54:52;137.65;;;47.75;;
18720;SDS011;9489;50.948;3.114;2023-04-09T02:57:18;158.15;;;46.08;;
18720;SDS011;9489;50.948;3.114;2023-04-09T02:59:43;108.63;;;45.03;;
18720;SDS011;9489;50.948;3.114;2023-04-09T03:02:09;77.28;;;45.25;;
18720;SDS011;9489;50.948;3.114;2023-04-09T03:04:35;71.63;;;46.10;;
18720;SDS011;9489;50.948;3.114;2023-04-09T03:07:01;67.47;;;44.55;;
18720;SDS011;9489;50.948;3.114;2023-04-09T03:09:26;62.33;;;45.60;;
18720;SDS011;9489;50.948;3.114;2023-04-09T03:11:52;114.60;;;50.75;;
18720;SDS011;9489;50.948;3.114;2023-04-09T03:14:18;94.10;;;46.88;;
18720;SDS011;9489;50.948;3.114;2023-04-09T03:16:44;98.88;;;47.80;;
18720;SDS011;9489;50.948;3.114;2023-04-09T03:19:09;57.63;;;43.17;;
18720;SDS011;9489;50.948;3.114;2023-04-09T03:21:35;61.10;;;43.42;;
18720;SDS011;9489;50.948;3.114;2023-04-09T03:24:00;80.22;;;45.90;;
18720;SDS011;9489;50.948;3.114;2023-04-09T03:26:26;64.75;;;45.72;;
18720;SDS011;9489;50.948;3.114;2023-04-09T03:28:51;84.30;;;45.47;;
18720;SDS011;9489;50.948;3.114;2023-04-09T03:31:17;62.15;;;43.92;;
18720;SDS011;9489;50.948;3.114;2023-04-09T03:33:43;80.28;;;47.10;;
18720;SDS011;9489;50.948;3.114;2023-04-09T03:36:08;74.60;;;46.30;;
18720;SDS011;9489;50.948;3.114;2023-04-09T03:38:34;63.05;;;43.58;;
18720;SDS011;9489;50.948;3.114;2023-04-09T03:40:59;66.32;;;47.97;;
18720;SDS011;9489;50.948;3.114;2023-04-09T03:43:25;71.43;;;48.08;;
18720;SDS011;9489;50.948;3.114;2023-04-09T03:45:51;75.80;;;46.78;;
18720;SDS011;9489;50.948;3.114;2023-04-09T03:48:16;106.03;;;47.35;;
18720;SDS011;9489;50.948;3.114;2023-04-09T03:50:42;80.22;;;44.60;;
18720;SDS011;9489;50.948;3.114;2023-04-09T03:53:08;76.55;;;46.42;;
18720;SDS011;9489;50.948;3.114;2023-04-09T03:55:33;62.22;;;43.55;;
18720;SDS011;9489;50.948;3.114;2023-04-09T03:57:59;77.70;;;45.92;;
18720;SDS011;9489;50.948;3.114;2023-04-09T04:00:25;55.17;;;43.92;;
18720;SDS011;9489;50.948;3.114;2023-04-09T04:02:50;73.22;;;45.58;;
18720;SDS011;9489;50.948;3.114;2023-04-09T04:05:16;88.93;;;47.67;;
18720;SDS011;9489;50.948;3.114;2023-04-09T04:07:42;57.30;;;43.13;;
18720;SDS011;9489;50.948;3.114;2023-04-09T04:10:08;51.08;;;42.42;;
18720;SDS011;9489;50.948;3.114;2023-04-09T04:12:34;51.20;;;41.38;;
18720;SDS011;9489;50.948;3.114;2023-04-09T04:15:00;49.00;;;41.88;;
18720;SDS011;9489;50.948;3.114;2023-04-09T04:17:26;49.33;;;40.60;;
18720;SDS011;9489;50.948;3.114;2023-04-09T04:19:51;45.63;;;39.58;;
18720;SDS011;9489;50.948;3.114;2023-04-09T04:22:17;46.22;;;39.67;;
18720;SDS011;9489;50.948;3.114;2023-04-09T04:24:42;48.70;;;41.65;;
18720;SDS011;9489;50.948;3.114;2023-04-09T04:27:08;46.10;;;40.08;;
18720;SDS011;9489;50.948;3.114;2023-04-09T04:29:33;46.35;;;39.13;;
18720;SDS011;9489;50.948;3.114;2023-04-09T04:31:59;51.67;;;41.58;;
18720;SDS011;9489;50.948;3.114;2023-04-09T04:34:25;50.08;;;41.92;;
18720;SDS011;9489;50.948;3.114;2023-04-09T04:36:50;49.10;;;40.22;;
18720;SDS011;9489;50.948;3.114;2023-04-09T04:39:16;51.72;;;40.72;;
18720;SDS011;9489;50.948;3.114;2023-04-09T04:41:41;50.08;;;42.05;;
18720;SDS011;9489;50.948;3.114;2023-04-09T04:44:07;55.17;;;43.15;;
18720;SDS011;9489;50.948;3.114;2023-04-09T04:46:32;52.20;;;40.95;;
18720;SDS011;9489;50.948;3.114;2023-04-09T04:48:58;58.50;;;43.65;;
18720;SDS011;9489;50.948;3.114;2023-04-09T04:51:23;62.33;;;44.83;;
18720;SDS011;9489;50.948;3.114;2023-04-09T04:53:51;66.38;;;45.70;;
18720;SDS011;9489;50.948;3.114;2023-04-09T04:56:16;67.43;;;47.50;;
18720;SDS011;9489;50.948;3.114;2023-04-09T04:58:42;53.15;;;41.75;;
18720;SDS011;9489;50.948;3.114;2023-04-09T05:01:07;62.95;;;46.22;;
18720;SDS011;9489;50.948;3.114;2023-04-09T05:03:33;76.82;;;53.90;;
18720;SDS011;9489;50.948;3.114;2023-04-09T05:05:59;73.95;;;48.88;;
18720;SDS011;9489;50.948;3.114;2023-04-09T05:08:24;67.60;;;47.30;;
18720;SDS011;9489;50.948;3.114;2023-04-09T05:10:50;86.95;;;58.30;;
18720;SDS011;9489;50.948;3.114;2023-04-09T05:13:19;89.22;;;60.17;;
18720;SDS011;9489;50.948;3.114;2023-04-09T05:15:45;78.10;;;53.85;;
18720;SDS011;9489;50.948;3.114;2023-04-09T05:18:11;80.15;;;56.92;;
18720;SDS011;9489;50.948;3.114;2023-04-09T05:20:36;75.50;;;53.05;;
18720;SDS011;9489;50.948;3.114;2023-04-09T05:23:02;72.40;;;52.33;;
18720;SDS011;9489;50.948;3.114;2023-04-09T05:25:27;76.07;;;52.28;;
18720;SDS011;9489;50.948;3.114;2023-04-09T05:27:53;79.78;;;51.95;;
18720;SDS011;9489;50.948;3.114;2023-04-09T05:30:19;82.35;;;53.83;;
18720;SDS011;9489;50.948;3.114;2023-04-09T05:32:45;75.82;;;53.30;;
18720;SDS011;9489;50.948;3.114;2023-04-09T05:35:11;80.03;;;52.92;;
18720;SDS011;9489;50.948;3.114;2023-04-09T05:37:36;93.70;;;77.07;;
18720;SDS011;9489;50.948;3.114;2023-04-09T05:40:02;97.85;;;65.85;;
18720;SDS011;9489;50.948;3.114;2023-04-09T05:42:28;87.22;;;61.65;;
18720;SDS011;9489;50.948;3.114;2023-04-09T05:44:53;78.00;;;54.13;;
18720;SDS011;9489;50.948;3.114;2023-04-09T05:47:19;84.18;;;57.95;;
18720;SDS011;9489;50.948;3.114;2023-04-09T05:49:45;76.72;;;55.53;;
18720;SDS011;9489;50.948;3.114;2023-04-09T05:52:11;81.93;;;56.00;;
18720;SDS011;9489;50.948;3.114;2023-04-09T05:54:36;92.88;;;59.17;;
18720;SDS011;9489;50.948;3.114;2023-04-09T05:57:02;90.10;;;60.63;;
18720;SDS011;9489;50.948;3.114;2023-04-09T05:59:27;94.75;;;62.42;;
18720;SDS011;9489;50.948;3.114;2023-04-09T06:01:53;94.18;;;61.53;;
18720;SDS011;9489;50.948;3.114;2023-04-09T06:04:18;90.60;;;61.00;;
18720;SDS011;9489;50.948;3.114;2023-04-09T06:06:44;85.15;;;59.42;;
18720;SDS011;9489;50.948;3.114;2023-04-09T06:09:11;75.78;;;56.78;;
18720;SDS011;9489;50.948;3.114;2023-04-09T06:11:36;78.85;;;59.85;;
18720;SDS011;9489;50.948;3.114;2023-04-09T06:14:02;76.47;;;60.45;;
18720;SDS011;9489;50.948;3.114;2023-04-09T06:16:27;64.25;;;54.92;;
18720;SDS011;9489;50.948;3.114;2023-04-09T06:18:53;64.45;;;56.55;;
18720;SDS011;9489;50.948;3.114;2023-04-09T06:21:20;60.90;;;54.30;;
18720;SDS011;9489;50.948;3.114;2023-04-09T06:23:46;58.72;;;51.83;;
18720;SDS011;9489;50.948;3.114;2023-04-09T06:26:11;57.63;;;51.35;;
18720;SDS011;9489;50.948;3.114;2023-04-09T06:28:37;54.63;;;48.95;;
18720;SDS011;9489;50.948;3.114;2023-04-09T06:31:03;47.53;;;42.85;;
18720;SDS011;9489;50.948;3.114;2023-04-09T06:33:28;44.55;;;40.20;;
18720;SDS011;9489;50.948;3.114;2023-04-09T06:35:54;43.15;;;39.13;;
18720;SDS011;9489;50.948;3.114;2023-04-09T06:38:20;40.38;;;36.50;;
18720;SDS011;9489;50.948;3.114;2023-04-09T06:40:45;39.58;;;35.88;;
18720;SDS011;9489;50.948;3.114;2023-04-09T06:43:11;40.85;;;37.17;;
18720;SDS011;9489;50.948;3.114;2023-04-09T06:45:36;39.72;;;36.15;;
18720;SDS011;9489;50.948;3.114;2023-04-09T06:48:02;39.33;;;35.63;;
18720;SDS011;9489;50.948;3.114;2023-04-09T06:50:28;39.08;;;35.42;;
18720;SDS011;9489;50.948;3.114;2023-04-09T06:52:54;38.65;;;35.08;;
18720;SDS011;9489;50.948;3.114;2023-04-09T06:55:21;39.15;;;35.55;;
18720;SDS011;9489;50.948;3.114;2023-04-09T06:57:46;38.13;;;34.72;;
18720;SDS011;9489;50.948;3.114;2023-04-09T07:00:12;35.85;;;32.70;;
18720;SDS011;9489;50.948;3.114;2023-04-09T07:02:38;40.28;;;36.75;;
18720;SDS011;9489;50.948;3.114;2023-04-09T07:05:03;41.45;;;37.70;;
18720;SDS011;9489;50.948;3.114;2023-04-09T07:07:29;38.05;;;34.70;;
18720;SDS011;9489;50.948;3.114;2023-04-09T07:09:55;38.58;;;35.20;;
18720;SDS011;9489;50.948;3.114;2023-04-09T07:14:57;44.40;;;40.47;;
18720;SDS011;9489;50.948;3.114;2023-04-09T07:17:26;41.60;;;37.83;;
18720;SDS011;9489;50.948;3.114;2023-04-09T07:19:52;44.92;;;40.88;;
18720;SDS011;9489;50.948;3.114;2023-04-09T07:22:20;48.70;;;44.03;;
18720;SDS011;9489;50.948;3.114;2023-04-09T07:24:47;47.45;;;42.95;;
18720;SDS011;9489;50.948;3.114;2023-04-09T07:27:18;48.33;;;43.72;;
18720;SDS011;9489;50.948;3.114;2023-04-09T07:29:44;50.17;;;45.63;;
18720;SDS011;9489;50.948;3.114;2023-04-09T07:32:10;45.97;;;41.65;;
18720;SDS011;9489;50.948;3.114;2023-04-09T07:34:36;46.25;;;41.97;;
18720;SDS011;9489;50.948;3.114;2023-04-09T07:37:02;46.60;;;42.22;;
18720;SDS011;9489;50.948;3.114;2023-04-09T07:39:27;41.92;;;38.03;;
18720;SDS011;9489;50.948;3.114;2023-04-09T07:41:53;45.10;;;40.80;;
18720;SDS011;9489;50.948;3.114;2023-04-09T07:44:18;44.03;;;40.03;;
18720;SDS011;9489;50.948;3.114;2023-04-09T07:46:44;47.78;;;43.50;;
18720;SDS011;9489;50.948;3.114;2023-04-09T07:49:10;48.10;;;43.63;;
18720;SDS011;9489;50.948;3.114;2023-04-09T07:51:35;46.47;;;42.38;;
18720;SDS011;9489;50.948;3.114;2023-04-09T07:54:01;45.92;;;41.75;;
18720;SDS011;9489;50.948;3.114;2023-04-09T07:56:26;43.78;;;39.78;;
18720;SDS011;9489;50.948;3.114;2023-04-09T07:58:52;42.83;;;39.08;;
18720;SDS011;9489;50.948;3.114;2023-04-09T08:01:17;45.55;;;41.53;;
18720;SDS011;9489;50.948;3.114;2023-04-09T08:03:45;43.83;;;39.92;;
18720;SDS011;9489;50.948;3.114;2023-04-09T08:06:11;43.88;;;39.78;;
18720;SDS011;9489;50.948;3.114;2023-04-09T08:08:36;44.65;;;40.67;;
18720;SDS011;9489;50.948;3.114;2023-04-09T08:11:02;46.38;;;42.33;;
18720;SDS011;9489;50.948;3.114;2023-04-09T08:13:27;43.28;;;39.70;;
18720;SDS011;9489;50.948;3.114;2023-04-09T08:15:53;44.33;;;40.53;;
18720;SDS011;9489;50.948;3.114;2023-04-09T08:18:18;44.40;;;40.65;;
18720;SDS011;9489;50.948;3.114;2023-04-09T08:20:44;46.10;;;42.17;;
18720;SDS011;9489;50.948;3.114;2023-04-09T08:23:10;45.90;;;42.00;;
18720;SDS011;9489;50.948;3.114;2023-04-09T08:25:36;46.78;;;42.80;;
18720;SDS011;9489;50.948;3.114;2023-04-09T08:28:01;42.53;;;38.88;;
18720;SDS011;9489;50.948;3.114;2023-04-09T08:30:27;45.47;;;41.58;;
18720;SDS011;9489;50.948;3.114;2023-04-09T08:32:52;43.53;;;39.70;;
18720;SDS011;9489;50.948;3.114;2023-04-09T08:35:18;45.75;;;41.72;;
18720;SDS011;9489;50.948;3.114;2023-04-09T08:37:44;44.17;;;40.25;;
18720;SDS011;9489;50.948;3.114;2023-04-09T08:40:09;40.90;;;37.40;;
18720;SDS011;9489;50.948;3.114;2023-04-09T08:42:35;42.63;;;39.15;;
18720;SDS011;9489;50.948;3.114;2023-04-09T08:45:07;42.70;;;39.22;;
18720;SDS011;9489;50.948;3.114;2023-04-09T08:47:33;44.35;;;40.72;;
18720;SDS011;9489;50.948;3.114;2023-04-09T08:50:00;44.17;;;40.58;;
18720;SDS011;9489;50.948;3.114;2023-04-09T08:52:32;42.50;;;38.97;;
18720;SDS011;9489;50.948;3.114;2023-04-09T08:54:59;43.10;;;39.45;;
18720;SDS011;9489;50.948;3.114;2023-04-09T08:57:25;43.80;;;40.13;;
18720;SDS011;9489;50.948;3.114;2023-04-09T08:59:51;40.05;;;36.70;;
18720;SDS011;9489;50.948;3.114;2023-04-09T09:02:16;44.15;;;40.58;;
18720;SDS011;9489;50.948;3.114;2023-04-09T09:04:48;44.97;;;41.17;;
18720;SDS011;9489;50.948;3.114;2023-04-09T09:07:15;38.88;;;35.80;;
18720;SDS011;9489;50.948;3.114;2023-04-09T09:09:54;42.05;;;38.65;;
18720;SDS011;9489;50.948;3.114;2023-04-09T09:12:30;39.92;;;36.80;;
18720;SDS011;9489;50.948;3.114;2023-04-09T09:15:00;44.35;;;40.70;;
18720;SDS011;9489;50.948;3.114;2023-04-09T09:17:26;37.58;;;34.53;;
18720;SDS011;9489;50.948;3.114;2023-04-09T09:19:52;39.90;;;36.70;;
18720;SDS011;9489;50.948;3.114;2023-04-09T09:22:18;41.03;;;37.72;;
18720;SDS011;9489;50.948;3.114;2023-04-09T09:24:48;41.53;;;38.38;;
18720;SDS011;9489;50.948;3.114;2023-04-09T09:27:34;38.53;;;35.53;;
18720;SDS011;9489;50.948;3.114;2023-04-09T09:30:03;38.25;;;35.10;;
18720;SDS011;9489;50.948;3.114;2023-04-09T09:32:29;40.38;;;37.20;;
18720;SDS011;9489;50.948;3.114;2023-04-09T09:35:05;38.92;;;35.88;;
18720;SDS011;9489;50.948;3.114;2023-04-09T09:37:31;43.50;;;39.85;;
18720;SDS011;9489;50.948;3.114;2023-04-09T09:39:58;36.00;;;33.08;;
18720;SDS011;9489;50.948;3.114;2023-04-09T09:42:24;38.83;;;35.83;;
18720;SDS011;9489;50.948;3.114;2023-04-09T09:44:52;39.42;;;36.10;;
18720;SDS011;9489;50.948;3.114;2023-04-09T09:47:19;38.80;;;35.70;;
18720;SDS011;9489;50.948;3.114;2023-04-09T09:49:47;38.97;;;36.03;;
18720;SDS011;9489;50.948;3.114;2023-04-09T09:52:14;41.28;;;38.13;;
18720;SDS011;9489;50.948;3.114;2023-04-09T09:54:41;37.55;;;34.50;;
18720;SDS011;9489;50.948;3.114;2023-04-09T09:57:09;39.60;;;36.63;;
18720;SDS011;9489;50.948;3.114;2023-04-09T10:00:00;32.95;;;30.33;;
18720;SDS011;9489;50.948;3.114;2023-04-09T10:02:31;34.10;;;31.40;;
18720;SDS011;9489;50.948;3.114;2023-04-09T10:05:04;36.40;;;33.50;;
18720;SDS011;9489;50.948;3.114;2023-04-09T10:07:32;32.83;;;30.23;;
18720;SDS011;9489;50.948;3.114;2023-04-09T10:09:58;33.17;;;30.67;;
18720;SDS011;9489;50.948;3.114;2023-04-09T10:12:26;31.00;;;28.70;;
18720;SDS011;9489;50.948;3.114;2023-04-09T10:14:52;28.00;;;25.90;;
18720;SDS011;9489;50.948;3.114;2023-04-09T10:17:20;25.98;;;24.10;;
18720;SDS011;9489;50.948;3.114;2023-04-09T10:20:06;32.10;;;29.60;;
18720;SDS011;9489;50.948;3.114;2023-04-09T10:22:36;27.33;;;25.23;;
18720;SDS011;9489;50.948;3.114;2023-04-09T10:25:03;30.50;;;28.20;;
18720;SDS011;9489;50.948;3.114;2023-04-09T10:27:30;29.58;;;27.38;;
18720;SDS011;9489;50.948;3.114;2023-04-09T10:29:56;31.80;;;29.40;;
18720;SDS011;9489;50.948;3.114;2023-04-09T10:32:24;26.20;;;24.27;;
18720;SDS011;9489;50.948;3.114;2023-04-09T10:34:52;22.15;;;20.48;;
18720;SDS011;9489;50.948;3.114;2023-04-09T10:37:22;23.80;;;21.98;;
18720;SDS011;9489;50.948;3.114;2023-04-09T10:39:49;28.25;;;26.15;;
18720;SDS011;9489;50.948;3.114;2023-04-09T10:42:23;30.50;;;28.17;;
18720;SDS011;9489;50.948;3.114;2023-04-09T10:47:32;28.60;;;26.40;;
18720;SDS011;9489;50.948;3.114;2023-04-09T10:50:22;28.23;;;25.90;;
18720;SDS011;9489;50.948;3.114;2023-04-09T10:52:56;26.80;;;24.77;;
18720;SDS011;9489;50.948;3.114;2023-04-09T10:55:32;28.83;;;26.63;;
18720;SDS011;9489;50.948;3.114;2023-04-09T10:58:03;29.20;;;27.13;;
18720;SDS011;9489;50.948;3.114;2023-04-09T11:00:37;29.90;;;27.70;;
18720;SDS011;9489;50.948;3.114;2023-04-09T11:06:00;29.10;;;27.00;;
18720;SDS011;9489;50.948;3.114;2023-04-09T11:08:30;32.42;;;30.00;;
18720;SDS011;9489;50.948;3.114;2023-04-09T11:10:57;28.70;;;26.50;;
18720;SDS011;9489;50.948;3.114;2023-04-09T11:13:25;29.98;;;27.77;;
18720;SDS011;9489;50.948;3.114;2023-04-09T11:15:52;29.33;;;27.00;;
18720;SDS011;9489;50.948;3.114;2023-04-09T11:18:19;28.48;;;26.42;;
18720;SDS011;9489;50.948;3.114;2023-04-09T11:20:53;27.55;;;25.48;;
18720;SDS011;9489;50.948;3.114;2023-04-09T11:23:23;26.83;;;24.98;;
18720;SDS011;9489;50.948;3.114;2023-04-09T11:25:50;26.17;;;24.38;;
18720;SDS011;9489;50.948;3.114;2023-04-09T11:28:16;25.15;;;23.35;;
18720;SDS011;9489;50.948;3.114;2023-04-09T11:30:42;28.58;;;26.50;;
18720;SDS011;9489;50.948;3.114;2023-04-09T11:33:08;28.23;;;26.10;;
18720;SDS011;9489;50.948;3.114;2023-04-09T11:35:34;26.65;;;24.63;;
18720;SDS011;9489;50.948;3.114;2023-04-09T11:38:04;26.23;;;24.33;;
18720;SDS011;9489;50.948;3.114;2023-04-09T11:40:30;23.67;;;22.02;;
18720;SDS011;9489;50.948;3.114;2023-04-09T11:42:56;24.38;;;22.52;;
18720;SDS011;9489;50.948;3.114;2023-04-09T11:45:22;25.45;;;23.63;;
18720;SDS011;9489;50.948;3.114;2023-04-09T11:47:50;24.55;;;22.75;;
18720;SDS011;9489;50.948;3.114;2023-04-09T11:50:16;23.13;;;21.40;;
18720;SDS011;9489;50.948;3.114;2023-04-09T11:52:43;23.83;;;22.00;;
18720;SDS011;9489;50.948;3.114;2023-04-09T11:55:10;23.67;;;21.98;;
18720;SDS011;9489;50.948;3.114;2023-04-09T12:00:06;20.80;;;19.20;;
18720;SDS011;9489;50.948;3.114;2023-04-09T12:02:33;26.10;;;24.13;;
18720;SDS011;9489;50.948;3.114;2023-04-09T12:05:04;23.40;;;21.75;;
18720;SDS011;9489;50.948;3.114;2023-04-09T12:07:31;23.30;;;21.63;;
18720;SDS011;9489;50.948;3.114;2023-04-09T12:10:01;24.10;;;22.30;;
18720;SDS011;9489;50.948;3.114;2023-04-09T12:12:28;21.75;;;20.25;;
18720;SDS011;9489;50.948;3.114;2023-04-09T12:14:54;21.92;;;20.33;;
18720;SDS011;9489;50.948;3.114;2023-04-09T12:17:22;20.23;;;18.77;;
18720;SDS011;9489;50.948;3.114;2023-04-09T12:19:48;22.83;;;21.13;;
18720;SDS011;9489;50.948;3.114;2023-04-09T12:22:14;18.15;;;16.83;;
18720;SDS011;9489;50.948;3.114;2023-04-09T12:24:39;19.80;;;18.40;;
18720;SDS011;9489;50.948;3.114;2023-04-09T12:27:05;22.67;;;21.02;;
18720;SDS011;9489;50.948;3.114;2023-04-09T12:29:31;21.65;;;20.00;;
18720;SDS011;9489;50.948;3.114;2023-04-09T12:31:57;19.65;;;18.10;;
18720;SDS011;9489;50.948;3.114;2023-04-09T12:34:23;18.40;;;17.10;;
18720;SDS011;9489;50.948;3.114;2023-04-09T12:36:48;18.70;;;17.23;;
18720;SDS011;9489;50.948;3.114;2023-04-09T12:39:14;20.98;;;19.48;;
18720;SDS011;9489;50.948;3.114;2023-04-09T12:41:39;23.00;;;21.25;;
18720;SDS011;9489;50.948;3.114;2023-04-09T12:44:05;25.77;;;23.80;;
18720;SDS011;9489;50.948;3.114;2023-04-09T12:46:31;24.45;;;22.65;;
18720;SDS011;9489;50.948;3.114;2023-04-09T12:48:57;24.33;;;22.55;;
18720;SDS011;9489;50.948;3.114;2023-04-09T12:51:22;26.67;;;24.60;;
18720;SDS011;9489;50.948;3.114;2023-04-09T12:53:49;25.25;;;23.25;;
18720;SDS011;9489;50.948;3.114;2023-04-09T12:56:15;26.30;;;24.25;;
18720;SDS011;9489;50.948;3.114;2023-04-09T12:58:40;27.92;;;25.85;;
18720;SDS011;9489;50.948;3.114;2023-04-09T13:01:06;24.90;;;23.10;;
18720;SDS011;9489;50.948;3.114;2023-04-09T13:03:32;30.77;;;28.38;;
18720;SDS011;9489;50.948;3.114;2023-04-09T13:05:57;29.33;;;27.02;;
18720;SDS011;9489;50.948;3.114;2023-04-09T13:08:23;28.02;;;25.83;;
18720;SDS011;9489;50.948;3.114;2023-04-09T13:10:49;28.15;;;26.05;;
18720;SDS011;9489;50.948;3.114;2023-04-09T13:13:15;27.50;;;25.40;;
18720;SDS011;9489;50.948;3.114;2023-04-09T13:15:40;27.88;;;25.77;;
18720;SDS011;9489;50.948;3.114;2023-04-09T13:18:10;27.80;;;25.73;;
18720;SDS011;9489;50.948;3.114;2023-04-09T13:20:36;30.65;;;28.27;;
18720;SDS011;9489;50.948;3.114;2023-04-09T13:23:02;29.00;;;26.80;;
18720;SDS011;9489;50.948;3.114;2023-04-09T13:25:28;31.98;;;29.50;;
18720;SDS011;9489;50.948;3.114;2023-04-09T13:27:53;32.45;;;29.92;;
18720;SDS011;9489;50.948;3.114;2023-04-09T13:30:22;32.70;;;30.20;;
18720;SDS011;9489;50.948;3.114;2023-04-09T13:32:48;30.20;;;27.55;;
18720;SDS011;9489;50.948;3.114;2023-04-09T13:35:13;31.13;;;28.73;;
18720;SDS011;9489;50.948;3.114;2023-04-09T13:37:39;29.80;;;27.55;;
18720;SDS011;9489;50.948;3.114;2023-04-09T13:40:06;29.80;;;27.30;;
18720;SDS011;9489;50.948;3.114;2023-04-09T13:42:33;32.38;;;29.98;;
18720;SDS011;9489;50.948;3.114;2023-04-09T13:44:59;29.48;;;27.23;;
18720;SDS011;9489;50.948;3.114;2023-04-09T13:47:24;30.48;;;28.05;;
18720;SDS011;9489;50.948;3.114;2023-04-09T13:49:50;32.13;;;29.63;;
18720;SDS011;9489;50.948;3.114;2023-04-09T13:52:16;31.92;;;29.42;;
18720;SDS011;9489;50.948;3.114;2023-04-09T13:54:42;30.83;;;28.13;;
18720;SDS011;9489;50.948;3.114;2023-04-09T13:57:08;29.15;;;26.85;;
18720;SDS011;9489;50.948;3.114;2023-04-09T13:59:34;29.20;;;26.90;;
18720;SDS011;9489;50.948;3.114;2023-04-09T14:02:00;29.00;;;26.52;;
18720;SDS011;9489;50.948;3.114;2023-04-09T14:04:25;29.40;;;27.00;;
18720;SDS011;9489;50.948;3.114;2023-04-09T14:06:51;28.67;;;26.27;;
18720;SDS011;9489;50.948;3.114;2023-04-09T14:09:17;30.10;;;27.70;;
18720;SDS011;9489;50.948;3.114;2023-04-09T14:11:42;29.48;;;27.05;;
18720;SDS011;9489;50.948;3.114;2023-04-09T14:14:08;26.95;;;24.85;;
18720;SDS011;9489;50.948;3.114;2023-04-09T14:16:34;26.83;;;24.58;;
18720;SDS011;9489;50.948;3.114;2023-04-09T14:19:00;26.70;;;24.50;;
18720;SDS011;9489;50.948;3.114;2023-04-09T14:21:25;25.83;;;23.75;;
18720;SDS011;9489;50.948;3.114;2023-04-09T14:23:53;25.25;;;23.08;;
18720;SDS011;9489;50.948;3.114;2023-04-09T14:26:19;23.63;;;21.52;;
18720;SDS011;9489;50.948;3.114;2023-04-09T14:28:44;23.40;;;21.30;;
18720;SDS011;9489;50.948;3.114;2023-04-09T14:31:11;22.60;;;20.70;;
18720;SDS011;9489;50.948;3.114;2023-04-09T14:33:38;22.98;;;21.08;;
18720;SDS011;9489;50.948;3.114;2023-04-09T14:36:04;23.75;;;21.77;;
18720;SDS011;9489;50.948;3.114;2023-04-09T14:38:30;21.55;;;19.75;;
18720;SDS011;9489;50.948;3.114;2023-04-09T14:40:56;19.70;;;18.00;;
18720;SDS011;9489;50.948;3.114;2023-04-09T14:43:22;20.67;;;18.75;;
18720;SDS011;9489;50.948;3.114;2023-04-09T14:45:47;19.92;;;18.23;;
18720;SDS011;9489;50.948;3.114;2023-04-09T14:48:13;31.27;;;27.63;;
18720;SDS011;9489;50.948;3.114;2023-04-09T14:50:38;25.65;;;23.25;;
18720;SDS011;9489;50.948;3.114;2023-04-09T14:53:05;17.13;;;15.63;;